createdAt,value
2023-02-24T00:02:04.392Z,73.53
2023-02-24T00:04:34.966Z,74.97
2023-02-24T00:07:03.065Z,71.30
2023-02-24T00:09:33.696Z,71.70
2023-02-24T00:12:02.440Z,72.77
2023-02-24T00:14:33.344Z,73.00
2023-02-24T00:17:01.407Z,69.40
2023-02-24T00:19:34.286Z,67.70
2023-02-24T00:22:03.358Z,73.93
2023-02-24T00:24:31.492Z,70.57
2023-02-24T00:27:01.589Z,66.33
2023-02-24T00:29:30.138Z,65.47
2023-02-24T00:32:00.806Z,68.70
2023-02-24T00:34:34.192Z,64.73
2023-02-24T00:37:02.398Z,65.47
2023-02-24T00:39:30.682Z,68.63
2023-02-24T00:42:04.754Z,63.63
2023-02-24T00:44:37.878Z,64.43
2023-02-24T00:47:07.730Z,63.97
2023-02-24T00:49:42.765Z,66.30
2023-02-24T00:52:16.898Z,64.27
2023-02-24T00:54:46.691Z,63.60
2023-02-24T00:57:18.600Z,64.27
2023-02-24T00:59:51.451Z,62.63
2023-02-24T01:02:20.266Z,61.87
2023-02-24T01:04:50.103Z,63.03
2023-02-24T01:07:17.578Z,64.43
2023-02-24T01:09:45.139Z,60.63
2023-02-24T01:12:32.734Z,60.53
2023-02-24T01:15:03.329Z,60.37
2023-02-24T01:17:31.016Z,60.37
2023-02-24T01:20:15.945Z,61.20
2023-02-24T01:22:49.983Z,59.87
2023-02-24T01:25:20.418Z,56.73
2023-02-24T01:27:48.701Z,61.63
2023-02-24T01:30:18.874Z,55.73
2023-02-24T01:32:47.592Z,57.23
2023-02-24T01:35:16.138Z,57.63
2023-02-24T01:37:45.421Z,54.07
2023-02-24T01:40:21.122Z,56.43
2023-02-24T01:42:49.587Z,53.13
2023-02-24T01:45:21.890Z,54.13
2023-02-24T01:47:50.535Z,54.37
2023-02-24T01:50:22.112Z,53.50
2023-02-24T01:52:53.018Z,53.97
2023-02-24T01:55:29.455Z,49.97
2023-02-24T01:57:59.201Z,50.47
2023-02-24T02:00:47.009Z,51.53
2023-02-24T02:03:27.269Z,51.17
2023-02-24T02:06:01.303Z,48.23
2023-02-24T02:08:29.188Z,48.33
2023-02-24T02:11:02.738Z,46.73
2023-02-24T02:13:36.047Z,48.53
2023-02-24T02:16:11.340Z,49.17
2023-02-24T02:19:16.348Z,47.57
2023-02-24T02:21:55.657Z,46.30
2023-02-24T02:24:27.612Z,47.57
2023-02-24T02:27:29.511Z,48.63
2023-02-24T02:30:26.354Z,47.73
2023-02-24T02:33:31.298Z,46.30
2023-02-24T02:36:36.680Z,46.77
2023-02-24T02:39:22.210Z,46.77
2023-02-24T02:42:02.201Z,43.20
2023-02-24T02:44:47.812Z,44.00
2023-02-24T02:47:26.197Z,45.23
2023-02-24T02:50:01.332Z,45.40
2023-02-24T02:52:44.126Z,41.80
2023-02-24T02:55:41.365Z,42.50
2023-02-24T02:58:15.302Z,42.67
2023-02-24T03:01:01.953Z,43.20
2023-02-24T03:03:36.882Z,43.53
2023-02-24T03:06:13.863Z,43.40
2023-02-24T03:08:48.772Z,43.43
2023-02-24T03:11:20.970Z,40.73
2023-02-24T03:13:52.857Z,43.27
2023-02-24T03:16:23.625Z,42.20
2023-02-24T03:18:56.684Z,41.53
2023-02-24T03:21:33.084Z,40.17
2023-02-24T03:24:03.208Z,43.63
2023-02-24T03:26:53.287Z,41.07
2023-02-24T03:29:38.614Z,42.13
2023-02-24T03:32:18.848Z,42.70
2023-02-24T03:34:58.323Z,42.50
2023-02-24T03:37:30.491Z,41.80
2023-02-24T03:40:08.237Z,41.37
2023-02-24T03:42:36.979Z,41.83
2023-02-24T03:45:06.497Z,40.23
2023-02-24T03:47:34.932Z,41.20
2023-02-24T03:50:12.627Z,39.53
2023-02-24T03:53:04.343Z,40.33
2023-02-24T03:55:37.883Z,39.97
2023-02-24T03:58:19.306Z,40.03
2023-02-24T04:00:58.662Z,38.23
2023-02-24T04:03:48.316Z,37.83
2023-02-24T04:07:00.263Z,38.37
2023-02-24T04:09:29.407Z,36.80
2023-02-24T04:12:21.503Z,37.57
2023-02-24T04:15:10.812Z,38.33
2023-02-24T04:17:52.762Z,36.70
2023-02-24T04:20:24.761Z,36.73
2023-02-24T04:23:02.180Z,38.47
2023-02-24T04:25:31.867Z,34.80
2023-02-24T04:28:01.998Z,36.70
2023-02-24T04:30:35.290Z,35.20
2023-02-24T04:33:03.280Z,36.40
2023-02-24T04:35:31.431Z,36.07
2023-02-24T04:37:59.171Z,35.10
2023-02-24T04:40:28.502Z,35.23
2023-02-24T04:42:55.710Z,35.03
2023-02-24T04:45:28.620Z,35.23
2023-02-24T04:48:02.298Z,35.43
2023-02-24T04:50:36.269Z,37.30
2023-02-24T04:53:09.826Z,35.03
2023-02-24T04:55:40.758Z,37.60
2023-02-24T04:58:12.142Z,37.73
2023-02-24T05:00:42.035Z,37.30
2023-02-24T05:03:12.341Z,36.13
2023-02-24T05:05:43.034Z,35.23
2023-02-24T05:08:11.420Z,34.27
2023-02-24T05:10:44.701Z,36.57
2023-02-24T05:13:17.927Z,36.10
2023-02-24T05:15:47.904Z,35.27
2023-02-24T05:18:17.713Z,36.13
2023-02-24T05:21:07.175Z,36.03
2023-02-24T05:23:40.831Z,37.17
2023-02-24T05:26:10.470Z,41.23
2023-02-24T05:28:41.132Z,41.37
2023-02-24T05:31:15.244Z,35.70
2023-02-24T05:33:45.024Z,35.50
2023-02-24T05:36:17.564Z,37.07
2023-02-24T05:38:47.281Z,35.60
2023-02-24T05:41:19.005Z,36.47
2023-02-24T05:43:53.104Z,35.93
2023-02-24T05:46:29.570Z,36.17
2023-02-24T05:48:57.857Z,35.97
2023-02-24T05:51:26.185Z,36.20
2023-02-24T05:53:55.668Z,35.90
2023-02-24T05:56:23.701Z,38.03
2023-02-24T05:59:02.315Z,35.43
2023-02-24T06:01:35.282Z,36.77
2023-02-24T06:04:06.164Z,36.13
2023-02-24T06:06:35.245Z,35.90
2023-02-24T06:09:10.934Z,35.80
2023-02-24T06:11:43.241Z,37.93
2023-02-24T06:14:12.279Z,36.43
2023-02-24T06:16:43.936Z,35.53
2023-02-24T06:19:13.968Z,37.23
2023-02-24T06:21:42.526Z,34.67
2023-02-24T06:24:14.780Z,37.03
2023-02-24T06:26:45.808Z,35.67
2023-02-24T06:29:17.709Z,34.80
2023-02-24T06:31:45.800Z,37.50
2023-02-24T06:34:18.693Z,35.80
2023-02-24T06:36:49.118Z,37.23
2023-02-24T06:39:17.079Z,36.37
2023-02-24T06:41:45.160Z,33.80
2023-02-24T06:44:12.488Z,33.67
2023-02-24T06:46:41.401Z,31.13
2023-02-24T06:49:09.994Z,31.07
2023-02-24T06:51:37.464Z,28.80
2023-02-24T06:54:06.384Z,28.93
2023-02-24T06:56:38.517Z,29.33
2023-02-24T06:59:07.009Z,44.60
2023-02-24T07:01:36.325Z,30.03
2023-02-24T07:04:18.006Z,29.23
2023-02-24T07:06:52.425Z,23.33
2023-02-24T07:09:22.910Z,19.90
2023-02-24T07:11:52.830Z,19.97
2023-02-24T07:14:22.284Z,30.53
2023-02-24T07:16:54.632Z,40.03
2023-02-24T07:19:25.877Z,39.53
2023-02-24T07:22:00.543Z,33.43
2023-02-24T07:24:36.815Z,26.07
2023-02-24T07:27:23.310Z,32.03
2023-02-24T07:29:53.223Z,38.60
2023-02-24T07:32:23.107Z,38.27
2023-02-24T07:34:50.601Z,28.90
2023-02-24T07:37:20.475Z,21.97
2023-02-24T07:39:47.895Z,16.67
2023-02-24T07:42:15.497Z,17.83
2023-02-24T07:44:49.231Z,19.80
2023-02-24T07:47:17.886Z,21.17
2023-02-24T07:49:45.738Z,21.60
2023-02-24T07:52:14.090Z,18.87
2023-02-24T07:54:41.361Z,19.77
2023-02-24T07:57:14.479Z,20.93
2023-02-24T07:59:45.352Z,15.17
2023-02-24T08:02:13.918Z,11.47
2023-02-24T08:04:48.497Z,8.13
2023-02-24T08:07:16.366Z,14.60
2023-02-24T08:10:07.417Z,12.27
2023-02-24T08:12:35.382Z,11.47
2023-02-24T08:15:17.363Z,14.03
2023-02-24T08:17:47.796Z,16.10
2023-02-24T08:20:16.180Z,14.97
2023-02-24T08:22:47.036Z,14.80
2023-02-24T08:25:19.399Z,13.77
2023-02-24T08:28:08.460Z,9.13
2023-02-24T08:30:45.322Z,8.93
2023-02-24T08:33:23.193Z,11.47
2023-02-24T08:35:58.314Z,11.73
2023-02-24T08:38:28.512Z,10.83
2023-02-24T08:40:59.309Z,25.70
2023-02-24T08:43:34.999Z,22.20
2023-02-24T08:46:03.883Z,6.87
2023-02-24T08:48:38.891Z,6.67
2023-02-24T08:51:18.186Z,6.60
2023-02-24T08:53:47.054Z,8.60
2023-02-24T08:56:24.444Z,6.13
2023-02-24T08:58:58.160Z,9.77
2023-02-24T09:01:35.062Z,8.20
2023-02-24T09:04:19.111Z,6.97
2023-02-24T09:07:10.748Z,7.00
2023-02-24T09:09:42.316Z,10.57
2023-02-24T09:12:22.338Z,7.03
2023-02-24T09:14:55.806Z,8.03
2023-02-24T09:17:41.387Z,7.50
2023-02-24T09:20:56.257Z,6.30
2023-02-24T09:23:30.024Z,7.47
2023-02-24T09:25:57.411Z,7.90
2023-02-24T09:28:27.122Z,9.93
2023-02-24T09:31:00.386Z,10.13
2023-02-24T09:33:39.068Z,7.20
2023-02-24T09:36:20.100Z,7.33
2023-02-24T09:38:59.770Z,6.80
2023-02-24T09:41:58.744Z,7.90
2023-02-24T09:44:29.674Z,7.00
2023-02-24T09:47:31.596Z,8.20
2023-02-24T09:50:14.408Z,9.20
2023-02-24T09:52:42.208Z,9.20
2023-02-24T09:55:26.648Z,20.93
2023-02-24T09:58:18.251Z,18.80
2023-02-24T10:01:21.229Z,9.07
2023-02-24T10:04:21.084Z,8.37
2023-02-24T10:07:14.509Z,7.50
2023-02-24T10:09:47.313Z,8.30
2023-02-24T10:12:17.134Z,8.83
2023-02-24T10:14:53.920Z,7.40
2023-02-24T10:17:40.407Z,8.70
2023-02-24T10:20:14.214Z,14.60
2023-02-24T10:22:51.040Z,7.77
2023-02-24T10:25:43.646Z,9.17
2023-02-24T10:28:36.081Z,8.50
2023-02-24T10:31:25.951Z,6.47
2023-02-24T10:34:07.983Z,16.50
2023-02-24T10:36:36.135Z,6.57
2023-02-24T10:39:20.777Z,8.60
2023-02-24T10:41:57.872Z,6.53
2023-02-24T10:44:39.238Z,8.23
2023-02-24T10:47:14.485Z,7.87
2023-02-24T10:49:57.359Z,8.47
2023-02-24T10:52:37.448Z,7.27
2023-02-24T10:55:39.068Z,8.27
2023-02-24T10:58:07.752Z,5.87
2023-02-24T11:01:04.036Z,6.97
2023-02-24T11:03:46.812Z,7.67
2023-02-24T11:06:41.640Z,7.90
2023-02-24T11:09:32.321Z,36.40
2023-02-24T11:12:22.584Z,5.80
2023-02-24T11:15:16.934Z,6.37
2023-02-24T11:17:57.198Z,5.10
2023-02-24T11:20:49.536Z,7.27
2023-02-24T11:23:24.765Z,8.03
2023-02-24T11:26:00.932Z,6.90
2023-02-24T11:28:56.038Z,8.37
2023-02-24T11:31:41.619Z,8.80
2023-02-24T11:34:29.252Z,6.43
2023-02-24T11:37:23.096Z,6.43
2023-02-24T11:40:04.708Z,7.57
2023-02-24T11:42:37.288Z,7.90
2023-02-24T11:45:06.489Z,12.10
2023-02-24T11:47:41.310Z,7.07
2023-02-24T11:50:15.254Z,6.20
2023-02-24T11:52:46.908Z,5.70
2023-02-24T11:55:43.148Z,5.43
2023-02-24T11:58:31.090Z,6.07
2023-02-24T12:01:09.655Z,6.43
2023-02-24T12:03:51.580Z,7.07
2023-02-24T12:06:30.849Z,8.77
2023-02-24T12:09:07.899Z,36.37
2023-02-24T12:12:13.398Z,10.40
2023-02-24T12:15:13.606Z,7.73
2023-02-24T12:17:58.147Z,9.77
2023-02-24T12:20:37.251Z,8.83
2023-02-24T12:23:24.240Z,8.90
2023-02-24T12:26:15.676Z,10.40
2023-02-24T12:29:09.831Z,28.07
2023-02-24T12:31:43.022Z,8.87
2023-02-24T12:34:22.733Z,8.93
2023-02-24T12:36:57.285Z,9.03
2023-02-24T12:39:33.886Z,7.90
2023-02-24T12:42:10.628Z,7.37
2023-02-24T12:45:03.838Z,9.30
2023-02-24T12:47:58.160Z,7.50
2023-02-24T12:50:28.660Z,7.83
2023-02-24T12:53:12.664Z,6.97
2023-02-24T12:55:56.527Z,7.03
2023-02-24T12:58:35.253Z,7.33
2023-02-24T13:01:14.615Z,7.17
2023-02-24T13:04:05.445Z,7.63
2023-02-24T13:06:51.273Z,13.80
2023-02-24T13:09:52.370Z,9.87
2023-02-24T13:12:29.191Z,6.33
2023-02-24T13:14:56.901Z,8.93
2023-02-24T13:17:29.637Z,7.63
2023-02-24T13:19:57.253Z,7.60
2023-02-24T13:22:31.613Z,7.17
2023-02-24T13:25:18.327Z,5.83
2023-02-24T13:27:57.290Z,6.13
2023-02-24T13:30:26.403Z,4.90
2023-02-24T13:33:19.012Z,4.37
2023-02-24T13:35:48.775Z,5.43
2023-02-24T13:38:30.583Z,5.10
2023-02-24T13:41:27.003Z,4.77
2023-02-24T13:44:17.958Z,5.30
2023-02-24T13:47:03.196Z,4.47
2023-02-24T13:49:35.853Z,5.23
2023-02-24T13:52:15.865Z,5.40
2023-02-24T13:55:18.973Z,6.13
2023-02-24T13:57:55.190Z,6.67
2023-02-24T14:00:28.553Z,6.17
2023-02-24T14:02:56.251Z,6.57
2023-02-24T14:05:31.918Z,5.47
2023-02-24T14:08:00.182Z,5.67
2023-02-24T14:10:34.888Z,4.20
2023-02-24T14:13:19.797Z,4.77
2023-02-24T14:15:47.915Z,5.63
2023-02-24T14:18:25.644Z,4.33
2023-02-24T14:20:54.816Z,6.07
2023-02-24T14:23:26.212Z,4.80
2023-02-24T14:26:02.873Z,5.23
2023-02-24T14:28:32.636Z,4.30
2023-02-24T14:31:06.132Z,4.30
2023-02-24T14:33:38.068Z,4.93
2023-02-24T14:36:14.105Z,4.77
2023-02-24T14:38:42.088Z,4.70
2023-02-24T14:41:23.152Z,5.73
2023-02-24T14:43:52.399Z,4.30
2023-02-24T14:46:21.065Z,4.17
2023-02-24T14:48:54.634Z,6.17
2023-02-24T14:51:36.841Z,5.00
2023-02-24T14:54:09.425Z,4.37
2023-02-24T14:56:37.592Z,4.70
2023-02-24T14:59:21.922Z,4.17
2023-02-24T15:01:52.985Z,4.30
2023-02-24T15:04:26.146Z,5.00
2023-02-24T15:06:53.916Z,8.73
2023-02-24T15:09:28.172Z,4.83
2023-02-24T15:11:56.670Z,4.80
2023-02-24T15:14:25.495Z,5.17
2023-02-24T15:17:03.728Z,7.13
2023-02-24T15:19:37.539Z,5.57
2023-02-24T15:22:29.404Z,5.00
2023-02-24T15:25:16.118Z,6.30
2023-02-24T15:27:57.250Z,5.20
2023-02-24T15:31:00.272Z,5.50
2023-02-24T15:33:42.177Z,4.83
2023-02-24T15:36:17.547Z,5.57
2023-02-24T15:38:45.956Z,5.90
2023-02-24T15:41:14.390Z,5.67
2023-02-24T15:43:48.108Z,5.03
2023-02-24T15:46:33.401Z,5.90
2023-02-24T15:49:05.054Z,5.83
2023-02-24T15:51:35.241Z,6.13
2023-02-24T15:54:04.927Z,5.43
2023-02-24T15:56:34.707Z,5.73
2023-02-24T15:59:02.737Z,5.60
2023-02-24T16:01:31.181Z,5.27
2023-02-24T16:04:00.176Z,6.07
2023-02-24T16:06:29.253Z,5.63
2023-02-24T16:08:57.868Z,5.27
2023-02-24T16:11:28.931Z,5.90
2023-02-24T16:14:00.672Z,5.40
2023-02-24T16:16:28.052Z,5.30
2023-02-24T16:18:56.807Z,5.40
2023-02-24T16:21:24.178Z,5.80
2023-02-24T16:23:51.853Z,5.37
2023-02-24T16:26:23.253Z,5.33
2023-02-24T16:28:57.236Z,6.20
2023-02-24T16:31:26.335Z,7.57
2023-02-24T16:33:55.963Z,6.47
2023-02-24T16:36:25.305Z,7.30
2023-02-24T16:38:53.590Z,6.03
2023-02-24T16:41:21.167Z,6.37
2023-02-24T16:43:48.967Z,5.20
2023-02-24T16:46:24.990Z,5.97
2023-02-24T16:48:53.888Z,6.50
2023-02-24T16:51:23.113Z,6.57
2023-02-24T16:53:51.467Z,5.60
2023-02-24T16:56:19.975Z,5.33
2023-02-24T16:58:48.576Z,5.17
2023-02-24T17:01:21.605Z,6.07
2023-02-24T17:03:54.658Z,6.20
2023-02-24T17:06:25.386Z,7.37
2023-02-24T17:08:53.831Z,5.77
2023-02-24T17:11:24.646Z,5.43
2023-02-24T17:13:52.321Z,5.47
2023-02-24T17:16:20.607Z,5.53
2023-02-24T17:18:48.582Z,6.77
2023-02-24T17:21:18.687Z,5.87
2023-02-24T17:23:46.663Z,6.03
2023-02-24T17:26:16.040Z,8.37
2023-02-24T17:28:44.332Z,8.80
2023-02-24T17:31:12.732Z,6.53
2023-02-24T17:33:41.764Z,7.40
2023-02-24T17:36:09.503Z,6.60
2023-02-24T17:38:38.183Z,7.30
2023-02-24T17:41:05.839Z,7.33
2023-02-24T17:43:33.842Z,7.83
2023-02-24T17:46:04.510Z,7.07
2023-02-24T17:48:34.070Z,6.93
2023-02-24T17:51:02.703Z,7.03
2023-02-24T17:53:31.472Z,6.90
2023-02-24T17:56:07.163Z,6.90
2023-02-24T17:58:36.318Z,6.23
2023-02-24T18:01:06.091Z,6.07
2023-02-24T18:03:36.535Z,6.47
2023-02-24T18:06:11.545Z,6.73
2023-02-24T18:08:41.129Z,6.80
2023-02-24T18:11:14.114Z,6.83
2023-02-24T18:13:42.568Z,6.20
2023-02-24T18:16:15.214Z,9.23
2023-02-24T18:18:43.733Z,8.23
2023-02-24T18:21:12.488Z,7.97
2023-02-24T18:23:40.880Z,7.87
2023-02-24T18:26:11.089Z,7.10
2023-02-24T18:28:39.593Z,7.00
2023-02-24T18:31:16.817Z,6.73
2023-02-24T18:33:45.478Z,7.23
2023-02-24T18:36:14.628Z,7.17
2023-02-24T18:38:43.749Z,7.30
2023-02-24T18:41:20.670Z,7.67
2023-02-24T18:43:52.497Z,7.20
2023-02-24T18:46:22.170Z,7.37
2023-02-24T18:48:50.935Z,7.10
2023-02-24T18:51:22.834Z,7.17
2023-02-24T18:53:52.950Z,7.77
2023-02-24T18:56:24.688Z,7.13
2023-02-24T18:58:59.409Z,7.13
2023-02-24T19:01:31.185Z,6.63
2023-02-24T19:04:00.167Z,7.00
2023-02-24T19:06:29.616Z,7.00
2023-02-24T19:09:02.272Z,6.93
2023-02-24T19:11:30.403Z,6.93
2023-02-24T19:13:58.980Z,7.63
2023-02-24T19:16:27.524Z,7.80
2023-02-24T19:18:57.517Z,8.60
2023-02-24T19:21:27.265Z,7.90
2023-02-24T19:23:55.479Z,8.03
2023-02-24T19:26:26.004Z,8.10
2023-02-24T19:28:54.856Z,8.57
2023-02-24T19:31:26.805Z,8.10
2023-02-24T19:33:56.806Z,8.33
2023-02-24T19:36:25.029Z,9.00
2023-02-24T19:38:54.655Z,8.57
2023-02-24T19:41:23.271Z,9.00
2023-02-24T19:43:52.261Z,9.00
2023-02-24T19:46:23.004Z,9.67
2023-02-24T19:48:53.514Z,10.20
2023-02-24T19:51:25.495Z,9.70
2023-02-24T19:54:05.403Z,8.73
2023-02-24T19:56:39.340Z,9.37
2023-02-24T19:59:10.863Z,9.90
2023-02-24T20:01:39.897Z,9.87
2023-02-24T20:04:10.765Z,8.40
2023-02-24T20:06:43.836Z,8.90
2023-02-24T20:09:19.112Z,9.60
2023-02-24T20:11:50.537Z,8.90
2023-02-24T20:14:21.281Z,9.77
2023-02-24T20:16:50.704Z,12.60
2023-02-24T20:19:20.821Z,10.40
2023-02-24T20:21:49.320Z,9.50
2023-02-24T20:24:29.356Z,11.50
2023-02-24T20:26:58.649Z,13.77
2023-02-24T20:29:30.206Z,14.37
2023-02-24T20:32:01.681Z,14.33
2023-02-24T20:34:31.758Z,9.17
2023-02-24T20:37:02.610Z,7.27
2023-02-24T20:39:34.561Z,6.83
2023-02-24T20:42:03.986Z,8.53
2023-02-24T20:44:33.979Z,8.90
2023-02-24T20:47:04.408Z,6.30
2023-02-24T20:49:34.497Z,7.23
2023-02-24T20:52:02.857Z,6.40
2023-02-24T20:54:31.943Z,6.67
2023-02-24T20:57:02.226Z,6.07
2023-02-24T20:59:32.103Z,7.87
2023-02-24T21:02:00.555Z,15.47
2023-02-24T21:04:31.848Z,21.50
2023-02-24T21:07:00.863Z,5.60
2023-02-24T21:09:37.457Z,4.57
2023-02-24T21:12:05.913Z,4.87
2023-02-24T21:14:38.289Z,4.67
2023-02-24T21:17:08.357Z,4.20
2023-02-24T21:19:37.309Z,4.37
2023-02-24T21:22:06.993Z,4.20
2023-02-24T21:24:36.336Z,4.53
2023-02-24T21:27:05.266Z,4.87
2023-02-24T21:29:35.001Z,5.13
2023-02-24T21:32:07.278Z,4.77
2023-02-24T21:34:38.245Z,5.10
2023-02-24T21:37:10.469Z,4.60
2023-02-24T21:39:39.018Z,5.10
2023-02-24T21:42:08.645Z,6.07
2023-02-24T21:44:44.213Z,6.00
2023-02-24T21:47:15.349Z,4.80
2023-02-24T21:49:46.727Z,4.87
2023-02-24T21:52:15.280Z,4.73
2023-02-24T21:54:45.160Z,5.13
2023-02-24T21:57:20.089Z,6.70
2023-02-24T21:59:50.737Z,5.70
2023-02-24T22:02:24.120Z,5.40
2023-02-24T22:07:41.841Z,5.93
2023-02-24T22:10:13.457Z,5.73
2023-02-24T22:12:42.354Z,7.13
2023-02-24T22:15:12.187Z,8.10
2023-02-24T22:17:50.374Z,6.90
2023-02-24T22:20:19.750Z,6.47
2023-02-24T22:22:48.596Z,5.77
2023-02-24T22:25:17.561Z,6.07
2023-02-24T22:27:45.445Z,6.60
2023-02-24T22:30:14.597Z,7.40
2023-02-24T22:32:43.261Z,6.17
2023-02-24T22:35:12.416Z,5.67
2023-02-24T22:37:40.858Z,5.83
2023-02-24T22:40:10.731Z,7.17
2023-02-24T22:42:38.522Z,9.73
2023-02-24T22:45:08.239Z,13.27
2023-02-24T22:47:37.004Z,11.50
2023-02-24T22:50:06.147Z,6.70
2023-02-24T22:52:34.616Z,7.30
2023-02-24T22:55:04.218Z,6.77
2023-02-24T22:57:36.333Z,6.50
2023-02-24T23:00:09.996Z,6.37
2023-02-24T23:02:39.012Z,7.20
2023-02-24T23:05:09.097Z,6.53
2023-02-24T23:07:37.903Z,6.53
2023-02-24T23:10:06.829Z,6.77
2023-02-24T23:12:36.418Z,7.40
2023-02-24T23:15:05.944Z,7.70
2023-02-24T23:17:34.327Z,7.20
2023-02-24T23:20:03.084Z,7.27
2023-02-24T23:22:33.738Z,8.10
2023-02-24T23:25:02.083Z,8.00
2023-02-24T23:27:29.851Z,8.57
2023-02-24T23:29:59.453Z,8.07
2023-02-24T23:32:28.134Z,8.50
2023-02-24T23:34:56.671Z,8.30
2023-02-24T23:37:24.499Z,8.53
2023-02-24T23:39:53.107Z,7.90
2023-02-24T23:42:21.787Z,8.63
2023-02-24T23:44:49.992Z,6.93
2023-02-24T23:47:17.800Z,8.60
2023-02-24T23:49:48.388Z,8.97
2023-02-24T23:52:16.456Z,8.97
2023-02-24T23:54:50.026Z,8.27
2023-02-24T23:57:18.335Z,9.13
2023-02-24T23:59:46.985Z,9.03
